Terminal Aerodrome Forecast
Issued by NWS

Home | Current Version | Previous Version | Text Only | Print | Product List | Glossary On
Versions: 1 2 3 4 5 6 7 8 9 10 11 12 13 14 15 16 17 18 19 20 21 22 23 24 25 26 27 28 29 30 31 32 33 34 35
000
FTUS41 KBOX 211128
TAFBED
TAF
KBED 211128Z 2112/2212 VRB03KT P6SM BKN050 OVC100
     FM211600 11004KT P6SM OVC040
     FM212100 07004KT P6SM BKN050
     FM212300 06005KT 5SM BR OVC050
     FM220200 05006KT 3SM BR OVC010
     FM220500 01006KT 5SM BR OVC008=

USA.gov is the U.S. government's official web portal to all federal, state and local government web resources and services.